Nottingham - eastern half: Past 24 Hour Conditions

 

Pond Inlet Airport

10:00 AM EDT 05 May 2015
Disclaimer

This table is a summary of hourly weather conditions for the past 24 hours.
Please note that these observations might not always be representative of weather conditions over their associated marine area.

Date / Time
(EDT)
Wind(knots) Conditions Visibility(km) Pressure(kPa) Air tempC) Relative humidity(%) Dew pointC) Wind Chill
05 May 2015
10:00 ENE 24 gust 31 Light Snow 15 101.1 -9 47 -18 -20
9:00 E 16 gust 25 Sunny 16 101.1 -9 46 -19 -18
8:00 ENE 20 gust 26 Sunny 16 101.1 -9 50 -18 -20
7:00 ENE 20 gust 26 Sunny 16 101.1 -11 66 -16 -21
6:00 ENE 22 gust 31 Sunny 16 101.1 -11 66 -16 -22
5:00 ENE 17 gust 27 Sunny 16 101.1 -11 69 -16 -22
4:00 ENE 21 gust 32 Sunny 16 101.1 -12 65 -17 -23
3:00 ENE 22 gust 28 Sunny 16 101.1 -12 55 -19 -23
2:00 ENE 16 gust 21 Sunny 16 101.2 -13 60 -19 -24
1:00 E 23 gust 32 Clear 16 101.2 -12 49 -20 -23
0:00 E 25 gust 32 Sunny 16 101.2 -11 45 -21 -23
04 May 2015
23:00 E 24 gust 32 Sunny 16 101.2 -12 50 -20 -24
22:00 E 21 gust 30 Sunny 16 101.3 -11 49 -20 -22
21:00 E 21 Sunny 16 101.3 -11 54 -19 -22
20:00 E 22 gust 29 Sunny 16 101.3 -11 54 -18 -22
19:00 E 23 gust 30 Sunny 16 101.3 -10 57 -17 -22
18:00 E 26 gust 32 Drifting Snow 48 101.3 -10 56 -17 -22
17:00 ENE 21 gust 30 Partly Cloudy 48 101.3 -10 57 -17 -21
16:00 ENE 20 gust 27 Partly Cloudy 48 101.3 -10 59 -17 -20
15:00 E 22 gust 28 Drifting Snow 48 101.4 -10 57 -17 -21
14:00 ENE 18 gust 29 Drifting Snow 56 101.4 -10 56 -17 -19
13:00 NE 25 gust 33 Drifting Snow 48 101.4 -11 60 -17 -22
12:00 NE 24 gust 32 Drifting Snow 48 101.4 -11 59 -17 -22
11:00 NE 18 gust 29 Mainly Sunny 48 101.4 -13 74 -17 -24
10:00 ENE 22 gust 32 Light Snow 10 101.4 -14 79 -17 -27

Zoom-in to make a selection

Map of Arctic - Eastern Arctic marine weather areas Baker Lake Airport Chesterfield Inlet Airport Coral Harbour Airport Gjoa Haven Airport Kugaaruk Airport Rankin Inlet Airport Shepherd Bay Airport Whale Cove Airport Arctic Bay Brevoort Island Qikiqtarjuaq Airport Cape Dorset Airport Cape Dyer Cape Hooper Clyde Airport Grise Fiord Airport Hall Beach Airport Igloolik Airport Iqaluit Airport Longstaff Bluff Pangnirtung Airport Pond Inlet Airport Repulse Bay Airport Resolute Airport Resolution Island Rowley Island Airport Taloyoak Airport Wager Bay Akulivik Airport Ivujivik Airport Puvirnituq Airport Kangiqsujuaq Airport Kangirsuk Airport Quaqtaq Airport Tasiujaq Airport Cape Kakkiviak Cape Kiglapait Nain Airport Saglek Cape Mercy Kimmirut Airport Aupaluk Airport Salluit Airport Kangiqsualujjuaq Airport Cape Liverpool Fort Ross
Legend:
buoy Buoy
land station Land Station

Arctic - Eastern Arctic Area

Another Region

What we are doing

Date modified: